Terminal Aerodrome Forecast
Issued by NWS

Home | Current Version | Previous Version | Text Only | Print | Product List | Glossary On
Versions: 1 2 3 4 5 6 7 8 9 10 11 12 13 14 15
000
FTUS41 KBTV 211700
TAFMSS
TAF
KMSS 211725Z 2118/2218 07007KT P6SM VCTS SCT030 BKN060CB
      TEMPO 2118/2121 3SM TSRA OVC030CB
     FM220000 06005KT P6SM VCSH BKN040
     FM220500 06006KT 4SM BR OVC025
     FM221300 07008KT P6SM VCSH BKN035=

USA.gov is the U.S. government's official web portal to all federal, state and local government web resources and services.